Terminal Aerodrome Forecast
Issued by NWS

Home | Current Version | Previous Version | Text Only | Print | Product List | Glossary On
Versions: 1 2 3 4 5 6 7 8 9 10 11 12 13 14 15 16
416
FTUS41 KPBZ 240102 AAA
TAFHLG
TAF AMD
KHLG 240102Z 2401/2424 15010KT P6SM -RA OVC040
      TEMPO 2401/2403 5SM -RA
     FM240500 20010G20KT P6SM -RA OVC025
     FM240700 21010KT P6SM -RA OVC015
     FM241400 20012G22KT P6SM VCSH BKN025
     FM242000 21010G20KT P6SM BKN035=

USA.gov is the U.S. government's official web portal to all federal, state and local government web resources and services.